Time;durP1;ratioP1;P1;durP2;ratioP2;P2;SDS_P1;SDS_P2;PMS_P1;PMS_P2;Temp;Humidity;BMP_temperature;BMP_pressure;BME280_temperature;BME280_humidity;BME280_pressure;Samples;Min_cycle;Max_cycle;Signal;HPM_P1;HPM_P2
2023/11/29 00:00:08;;;;;;;2.60;2.30;;;;;;;17.46;53.82;95606.81;105530;1254;60527;-35
2023/11/29 00:02:39;;;;;;;2.70;2.20;;;;;;;17.46;53.70;95608.90;105650;1259;72601;-35
2023/11/29 00:05:10;;;;;;;3.00;2.50;;;;;;;17.46;53.79;95607.35;105605;1256;64196;-35
2023/11/29 00:07:43;;;;;;;2.90;2.50;;;;;;;17.46;53.71;95609.52;105340;1256;70175;-36
2023/11/29 00:10:10;;;;;;;2.30;2.10;;;;;;;17.46;53.78;95612.69;105451;1260;60429;-36
2023/11/29 00:12:38;;;;;;;2.70;2.20;;;;;;;17.45;53.72;95610.75;105651;1256;60400;-35
2023/11/29 00:15:06;;;;;;;2.50;2.30;;;;;;;17.46;53.72;95611.67;105353;1256;73737;-37
2023/11/29 00:17:33;;;;;;;2.40;2.20;;;;;;;17.45;53.59;95608.65;105596;1260;65148;-37
2023/11/29 00:20:01;;;;;;;2.90;2.40;;;;;;;17.45;53.71;95606.80;105716;1254;72440;-35
2023/11/29 00:22:29;;;;;;;2.80;2.50;;;;;;;17.45;53.74;95606.27;105709;1259;60851;-35
2023/11/29 00:24:57;;;;;;;3.90;2.20;;;;;;;17.45;53.68;95602.64;105647;1256;60439;-36
2023/11/29 00:27:24;;;;;;;2.70;2.30;;;;;;;17.45;53.73;95605.34;105667;1254;73623;-35
2023/11/29 00:29:51;;;;;;;2.60;2.30;;;;;;;17.45;53.73;95607.20;105518;1259;66116;-35
2023/11/29 00:32:19;;;;;;;2.60;2.40;;;;;;;17.45;53.70;95611.45;105231;1256;71618;-35
2023/11/29 00:34:46;;;;;;;2.60;2.40;;;;;;;17.45;53.72;95609.59;105496;1259;60550;-35
2023/11/29 00:37:13;;;;;;;2.80;2.30;;;;;;;17.45;53.62;95608.98;105359;1256;60397;-35
2023/11/29 00:39:41;;;;;;;2.40;2.20;;;;;;;17.44;53.64;95610.53;105544;1254;73777;-37
2023/11/29 00:42:08;;;;;;;2.50;2.30;;;;;;;17.44;53.64;95613.70;105427;1259;64808;-34
2023/11/29 00:44:35;;;;;;;2.70;2.30;;;;;;;17.44;53.68;95615.23;105502;1256;72378;-35
2023/11/29 00:47:03;;;;;;;2.30;2.10;;;;;;;17.44;53.66;95622.66;105488;1259;60418;-35
2023/11/29 00:49:30;;;;;;;3.60;2.50;;;;;;;17.44;53.56;95621.05;105329;1256;60553;-36
2023/11/29 00:51:58;;;;;;;3.30;2.60;;;;;;;17.43;53.55;95622.82;105675;1256;73790;-35
2023/11/29 00:54:25;;;;;;;2.70;2.40;;;;;;;17.44;53.60;95627.39;105654;1259;66104;-35
2023/11/29 00:56:52;;;;;;;2.70;2.40;;;;;;;17.44;53.59;95628.70;105622;1257;72452;-35
2023/11/29 00:59:19;;;;;;;2.60;2.30;;;;;;;17.43;53.65;95634.19;105344;1259;60467;-36
2023/11/29 01:01:47;;;;;;;2.50;2.30;;;;;;;17.44;53.50;95629.70;105388;1256;60445;-35
2023/11/29 01:04:15;;;;;;;2.50;2.20;;;;;;;17.43;53.54;95631.48;105535;1256;73809;-35
2023/11/29 01:06:42;;;;;;;3.10;2.40;;;;;;;17.43;53.60;95635.96;105432;1260;67271;-35
2023/11/29 01:09:12;;;;;;;2.50;2.30;;;;;;;17.43;53.47;95627.55;105480;1256;72402;-35
2023/11/29 01:11:40;;;;;;;2.80;2.10;;;;;;;17.43;53.56;95627.70;105638;1256;60573;-35
2023/11/29 01:14:08;;;;;;;2.50;2.30;;;;;;;17.42;53.49;95620.13;105602;1261;60416;-35
2023/11/29 01:16:35;;;;;;;2.40;2.20;;;;;;;17.43;53.58;95615.40;105594;1261;72639;-35
2023/11/29 01:19:03;;;;;;;2.60;2.30;;;;;;;17.42;53.49;95613.70;105266;1260;65080;-35
2023/11/29 01:21:30;;;;;;;2.30;2.10;;;;;;;17.42;53.47;95615.33;105482;1256;72540;-36
2023/11/29 01:24:05;;;;;;;3.20;2.20;;;;;;;17.42;53.48;95614.71;105418;1256;60813;-36
2023/11/29 01:26:33;;;;;;;2.50;2.30;;;;;;;17.42;53.53;95614.95;105663;1257;60430;-36
2023/11/29 01:29:01;;;;;;;3.30;2.50;;;;;;;17.41;53.50;95612.79;105662;1256;73624;-36
2023/11/29 01:31:28;;;;;;;3.10;2.20;;;;;;;17.42;53.50;95615.79;105661;1260;65939;-36
2023/11/29 01:33:57;;;;;;;2.80;2.40;;;;;;;17.42;53.50;95618.05;105572;1256;72329;-36
2023/11/29 01:36:25;;;;;;;2.30;2.10;;;;;;;17.41;53.42;95622.83;105710;1261;60446;-35
2023/11/29 01:38:52;;;;;;;3.10;2.70;;;;;;;17.41;53.45;95629.55;105405;1257;60525;-35
2023/11/29 01:41:19;;;;;;;2.60;2.40;;;;;;;17.41;53.46;95631.55;105327;1256;73797;-35
2023/11/29 01:43:47;;;;;;;2.90;2.30;;;;;;;17.42;53.42;95635.58;105659;1261;65520;-35
2023/11/29 01:46:14;;;;;;;2.40;2.20;;;;;;;17.41;53.42;95636.42;105518;1256;72742;-35
2023/11/29 01:48:41;;;;;;;2.40;2.20;;;;;;;17.41;53.38;95636.43;105400;1261;60453;-35
2023/11/29 01:51:09;;;;;;;3.10;2.50;;;;;;;17.40;53.34;95636.98;105475;1256;60477;-35
2023/11/29 01:53:37;;;;;;;3.80;2.40;;;;;;;17.41;53.36;95646.79;105356;1260;73564;-35
2023/11/29 01:56:07;;;;;;;3.00;2.30;;;;;;;17.41;53.37;95650.81;105576;1256;65393;-35
2023/11/29 01:58:35;;;;;;;2.50;2.30;;;;;;;17.40;53.44;95650.98;105629;1256;72568;-35
2023/11/29 02:01:02;;;;;;;4.00;2.30;;;;;;;17.40;53.40;95650.67;105457;1262;60573;-35
2023/11/29 02:03:29;;;;;;;2.80;2.20;;;;;;;17.40;53.42;95645.95;105560;1255;60442;-35
2023/11/29 02:05:57;;;;;;;2.70;2.40;;;;;;;17.39;53.32;95645.17;105618;1260;73813;-35
2023/11/29 02:08:24;;;;;;;3.00;2.40;;;;;;;17.39;53.37;95650.05;105675;1260;65943;-35
2023/11/29 02:10:52;;;;;;;3.10;2.50;;;;;;;17.39;53.27;95649.42;105342;1261;72325;-36
2023/11/29 02:13:19;;;;;;;2.40;2.20;;;;;;;17.39;53.32;95655.69;105614;1261;60471;-36
2023/11/29 02:15:46;;;;;;;2.70;2.10;;;;;;;17.39;53.34;95661.71;105582;1256;61063;-35
2023/11/29 02:18:14;;;;;;;2.40;2.20;;;;;;;17.39;53.33;95659.94;105650;1254;73644;-35
2023/11/29 02:20:42;;;;;;;2.50;2.30;;;;;;;17.39;53.30;95663.04;105927;1258;65940;-35
2023/11/29 02:23:42;;;;;;;2.40;2.00;;;;;;;17.39;53.23;95666.05;105283;1256;72688;-35
2023/11/29 02:26:10;;;;;;;2.90;2.10;;;;;;;17.38;53.24;95666.81;105429;1261;60488;-36
2023/11/29 02:28:37;;;;;;;2.70;2.50;;;;;;;17.37;53.22;95670.23;105628;1256;60612;-36
2023/11/29 02:31:04;;;;;;;2.50;2.20;;;;;;;17.37;53.25;95674.86;105618;1255;73674;-35
2023/11/29 02:33:32;;;;;;;3.30;2.40;;;;;;;17.38;53.29;95678.66;105577;1261;65601;-35
2023/11/29 02:35:59;;;;;;;2.30;2.10;;;;;;;17.38;53.17;95684.52;105603;1256;72511;-36
2023/11/29 02:38:26;;;;;;;3.10;2.40;;;;;;;17.37;53.32;95685.70;105569;1259;61092;-36
2023/11/29 02:40:54;;;;;;;2.20;2.00;;;;;;;17.37;53.15;95689.09;105664;1256;60395;-35
2023/11/29 02:43:21;;;;;;;3.90;2.50;;;;;;;17.37;53.23;95692.27;105729;1259;73763;-35
2023/11/29 02:45:48;;;;;;;2.70;2.30;;;;;;;17.37;53.17;95693.64;105574;1259;65260;-36
2023/11/29 02:48:16;;;;;;;2.20;2.00;;;;;;;17.37;53.24;95697.67;105634;1256;72580;-35
2023/11/29 02:50:43;;;;;;;2.60;1.90;;;;;;;17.36;53.21;95696.81;105857;1259;60412;-35
2023/11/29 02:53:11;;;;;;;2.80;2.40;;;;;;;17.36;53.25;95702.30;105715;1256;60445;-35
2023/11/29 02:55:38;;;;;;;2.70;2.10;;;;;;;17.37;53.17;95704.02;105864;1255;74010;-35
2023/11/29 02:58:06;;;;;;;2.30;2.10;;;;;;;17.36;53.22;95704.77;105532;1259;66120;-35
2023/11/29 03:00:33;;;;;;;2.30;2.10;;;;;;;17.36;53.19;95710.36;105629;1259;72771;-35
2023/11/29 03:03:00;;;;;;;2.70;2.30;;;;;;;17.36;53.21;95716.01;105524;1260;60419;-35
2023/11/29 03:05:28;;;;;;;2.40;2.20;;;;;;;17.35;53.18;95713.68;106166;1256;60341;-35
2023/11/29 03:07:56;;;;;;;2.40;1.90;;;;;;;17.35;53.14;95720.41;105684;1256;73794;-35
2023/11/29 03:10:23;;;;;;;2.50;2.30;;;;;;;17.35;53.16;95719.16;105290;1260;66144;-35
2023/11/29 03:12:50;;;;;;;3.30;2.30;;;;;;;17.35;53.12;95723.58;105447;1256;72706;-35
2023/11/29 03:15:18;;;;;;;3.20;2.30;;;;;;;17.35;53.10;95724.73;105466;1262;60412;-35
2023/11/29 03:17:46;;;;;;;2.50;2.30;;;;;;;17.35;53.09;95723.50;105596;1256;60449;-35
2023/11/29 03:20:13;;;;;;;2.80;2.30;;;;;;;17.35;53.20;95726.12;105653;1255;73816;-35
2023/11/29 03:22:41;;;;;;;2.90;2.20;;;;;;;17.34;53.13;95724.41;105549;1259;67325;-35
2023/11/29 03:25:08;;;;;;;2.60;2.10;;;;;;;17.35;53.20;95726.67;105211;1261;72597;-35
2023/11/29 03:27:35;;;;;;;2.80;2.00;;;;;;;17.35;53.18;95726.52;105513;1258;60544;-36
2023/11/29 03:30:03;;;;;;;2.50;2.30;;;;;;;17.34;53.12;95734.39;105456;1257;60463;-36
2023/11/29 03:32:30;;;;;;;2.60;2.40;;;;;;;17.34;53.11;95740.34;105526;1259;73812;-36
2023/11/29 03:34:58;;;;;;;2.50;2.30;;;;;;;17.34;53.05;95740.96;105458;1259;65585;-36
2023/11/29 03:37:25;;;;;;;2.70;2.30;;;;;;;17.33;53.03;95749.70;105588;1255;72715;-36
2023/11/29 03:39:52;;;;;;;3.10;2.00;;;;;;;17.33;53.06;95754.11;105499;1259;60506;-35
2023/11/29 03:42:20;;;;;;;2.50;2.10;;;;;;;17.33;53.13;95757.83;105448;1259;60433;-35
2023/11/29 03:44:47;;;;;;;2.30;2.10;;;;;;;17.33;53.05;95757.66;105425;1256;73869;-35
2023/11/29 03:47:15;;;;;;;2.10;1.90;;;;;;;17.32;53.00;95756.27;105375;1259;65052;-36
2023/11/29 03:49:42;;;;;;;3.60;2.00;;;;;;;17.33;53.02;95757.66;105438;1256;72553;-36
2023/11/29 03:52:09;;;;;;;2.40;2.20;;;;;;;17.32;53.06;95765.16;105523;1258;60787;-36
2023/11/29 03:54:37;;;;;;;3.10;2.20;;;;;;;17.32;52.98;95767.39;105642;1256;60526;-35
2023/11/29 03:57:05;;;;;;;2.20;2.00;;;;;;;17.31;52.98;95769.94;105724;1256;73586;-35
2023/11/29 03:59:35;;;;;;;2.20;2.00;;;;;;;17.31;52.92;95771.87;105544;1257;65179;-36
2023/11/29 04:02:02;;;;;;;2.60;2.30;;;;;;;17.31;52.97;95782.16;105385;1256;72700;-35
2023/11/29 04:04:30;;;;;;;2.30;2.10;;;;;;;17.32;52.97;95784.94;105554;1260;60627;-36
2023/11/29 04:07:01;;;;;;;2.50;2.20;;;;;;;17.31;52.98;95785.39;105465;1256;60473;-35
2023/11/29 04:09:28;;;;;;;2.50;2.10;;;;;;;17.31;52.96;95789.42;105403;1261;72384;-35
2023/11/29 04:11:57;;;;;;;2.80;2.10;;;;;;;17.31;52.93;95793.83;105236;1260;66094;-35
2023/11/29 04:14:24;;;;;;;2.40;2.20;;;;;;;17.31;52.94;95796.77;105349;1256;72395;-35
2023/11/29 04:16:52;;;;;;;2.60;2.20;;;;;;;17.31;52.99;95803.66;105373;1258;61207;-35
2023/11/29 04:19:20;;;;;;;2.80;2.30;;;;;;;17.31;52.90;95807.60;105348;1256;60865;-36
2023/11/29 04:21:47;;;;;;;2.20;2.00;;;;;;;17.30;52.93;95812.39;105487;1259;73587;-35
2023/11/29 04:24:15;;;;;;;2.40;2.20;;;;;;;17.30;53.03;95815.33;105249;1255;64910;-35
2023/11/29 04:26:42;;;;;;;2.70;2.20;;;;;;;17.30;52.96;95818.80;105313;1255;72444;-35
2023/11/29 04:29:10;;;;;;;2.40;2.20;;;;;;;17.30;52.92;95821.36;105495;1259;60442;-35
2023/11/29 04:31:38;;;;;;;2.50;2.30;;;;;;;17.30;52.92;95828.16;105425;1254;60517;-35
2023/11/29 04:34:05;;;;;;;2.20;2.00;;;;;;;17.29;52.94;95834.80;105385;1255;73521;-36
2023/11/29 04:36:50;;;;;;;2.30;2.10;;;;;;;17.29;52.93;95843.54;105639;1259;66252;-36
2023/11/29 04:39:18;;;;;;;2.60;2.20;;;;;;;17.29;52.90;95849.95;105649;1256;72626;-36
2023/11/29 04:41:45;;;;;;;2.70;2.20;;;;;;;17.28;52.89;95858.15;105585;1259;60449;-34
2023/11/29 04:44:14;;;;;;;2.70;2.20;;;;;;;17.28;52.82;95862.24;105664;1255;60445;-35
2023/11/29 04:46:42;;;;;;;2.10;1.90;;;;;;;17.28;52.82;95860.70;105516;1254;73783;-35
2023/11/29 04:49:10;;;;;;;2.80;2.40;;;;;;;17.28;52.82;95864.95;105511;1260;66237;-35
2023/11/29 04:51:38;;;;;;;2.30;2.10;;;;;;;17.28;52.79;95872.60;105648;1256;72700;-35
2023/11/29 04:54:05;;;;;;;2.30;2.10;;;;;;;17.28;52.84;95875.01;105677;1256;60435;-35
2023/11/29 04:56:32;;;;;;;2.30;2.10;;;;;;;17.28;52.81;95880.02;105471;1256;60439;-35
2023/11/29 04:59:00;;;;;;;2.30;2.10;;;;;;;17.27;52.88;95876.84;105479;1257;73846;-35
2023/11/29 05:01:27;;;;;;;2.70;2.40;;;;;;;17.27;52.77;95879.95;105370;1259;67138;-35
2023/11/29 05:03:55;;;;;;;2.10;1.90;;;;;;;17.27;52.79;95880.56;105330;1256;72701;-35
2023/11/29 05:06:23;;;;;;;2.10;1.90;;;;;;;17.27;52.83;95882.58;105419;1260;60423;-35
2023/11/29 05:08:50;;;;;;;2.80;2.30;;;;;;;17.26;52.73;95883.73;105556;1256;60413;-36
2023/11/29 05:11:18;;;;;;;2.60;2.20;;;;;;;17.26;52.78;95889.30;105439;1260;74266;-36
2023/11/29 05:13:45;;;;;;;2.20;2.00;;;;;;;17.26;52.80;95891.77;105573;1260;64087;-35
2023/11/29 05:16:12;;;;;;;2.20;1.90;;;;;;;17.26;52.75;95897.64;105611;1256;73488;-35
2023/11/29 05:18:40;;;;;;;2.40;2.20;;;;;;;17.25;52.57;95901.13;105344;1259;60514;-36
2023/11/29 05:21:07;;;;;;;2.40;2.20;;;;;;;17.25;52.69;95906.92;105732;1259;61190;-35
2023/11/29 05:23:34;;;;;;;3.00;2.40;;;;;;;17.26;52.78;95910.40;105603;1257;73480;-35
2023/11/29 05:26:02;;;;;;;2.20;2.00;;;;;;;17.25;52.69;95913.17;105594;1259;65918;-35
2023/11/29 05:28:35;;;;;;;2.60;2.10;;;;;;;17.25;52.75;95915.87;105659;1257;71874;-35
2023/11/29 05:31:03;;;;;;;2.40;2.20;;;;;;;17.24;52.63;95917.27;105546;1258;60457;-36
2023/11/29 05:33:31;;;;;;;3.20;2.20;;;;;;;17.25;52.66;95922.44;105489;1256;60528;-36
2023/11/29 05:35:58;;;;;;;2.30;2.10;;;;;;;17.23;52.73;95925.92;105496;1259;73550;-35
2023/11/29 05:38:26;;;;;;;3.20;2.30;;;;;;;17.24;52.68;95925.38;105429;1259;65054;-35
2023/11/29 05:40:53;;;;;;;2.80;2.20;;;;;;;17.24;52.56;95930.86;105470;1260;73040;-36
2023/11/29 05:43:21;;;;;;;2.30;2.10;;;;;;;17.23;52.72;95931.88;105540;1260;60419;-35
2023/11/29 05:45:59;;;;;;;2.10;1.90;;;;;;;17.22;52.65;95934.34;105634;1254;60444;-35
2023/11/29 05:48:31;;;;;;;2.40;2.20;;;;;;;17.22;52.64;95933.27;105340;1257;73796;-36
2023/11/29 05:50:59;;;;;;;2.20;2.00;;;;;;;17.22;52.74;95936.73;105297;1257;66300;-38
2023/11/29 05:53:26;;;;;;;2.40;2.00;;;;;;;17.22;52.69;95941.83;105382;1258;72607;-35
2023/11/29 05:55:53;;;;;;;4.90;2.10;;;;;;;17.22;52.74;95948.80;105480;1260;60547;-37
2023/11/29 05:58:21;;;;;;;2.40;2.10;;;;;;;17.21;52.74;95953.44;105394;1256;60477;-35
2023/11/29 06:00:48;;;;;;;2.20;2.00;;;;;;;17.21;52.76;95960.78;105342;1256;74237;-36
2023/11/29 06:03:15;;;;;;;2.70;2.50;;;;;;;17.21;52.72;95965.64;105352;1260;65026;-36
2023/11/29 06:05:43;;;;;;;3.70;2.70;;;;;;;17.21;52.70;95965.02;105340;1257;72652;-35
2023/11/29 06:08:17;;;;;;;3.30;2.40;;;;;;;17.21;52.74;95970.66;105433;1268;60438;-35
2023/11/29 06:10:45;;;;;;;3.60;2.90;;;;;;;17.21;52.83;95975.77;105335;1256;60692;-35
2023/11/29 06:13:13;;;;;;;3.50;2.40;;;;;;;17.21;52.74;95978.71;105166;1257;73509;-35
2023/11/29 06:15:42;;;;;;;4.10;2.70;;;;;;;17.21;52.84;95981.65;105374;1260;66291;-36
2023/11/29 06:18:10;;;;;;;3.30;2.70;;;;;;;17.21;52.80;95993.48;105159;1256;73694;-37
2023/11/29 06:20:40;;;;;;;3.80;2.30;;;;;;;17.21;52.85;95994.17;105185;1261;60438;-37
2023/11/29 06:23:07;;;;;;;4.60;3.00;;;;;;;17.20;52.88;96000.66;105468;1255;60525;-35
2023/11/29 06:25:35;;;;;;;3.30;2.80;;;;;;;17.21;52.85;96004.14;105202;1256;72611;-36
2023/11/29 06:28:04;;;;;;;4.20;2.70;;;;;;;17.21;52.77;96007.69;105478;1262;64925;-36
2023/11/29 06:30:32;;;;;;;3.40;2.40;;;;;;;17.21;52.81;96008.62;105932;1260;73665;-36
2023/11/29 06:32:59;;;;;;;2.60;2.40;;;;;;;17.22;52.74;96014.96;105598;1261;60531;-36
2023/11/29 06:35:27;;;;;;;3.10;2.50;;;;;;;17.22;52.78;96014.42;105163;1262;60368;-36
2023/11/29 06:37:54;;;;;;;5.70;2.40;;;;;;;17.22;52.67;96017.59;105467;1260;73847;-35
2023/11/29 06:40:30;;;;;;;4.10;2.50;;;;;;;17.22;52.61;96016.59;105090;1256;66252;-35
2023/11/29 06:42:57;;;;;;;2.80;2.30;;;;;;;17.23;52.73;96022.46;105480;1260;72231;-36
2023/11/29 06:45:25;;;;;;;3.70;2.70;;;;;;;17.23;52.72;96022.06;105205;1260;60422;-36
2023/11/29 06:47:52;;;;;;;3.60;2.40;;;;;;;17.23;52.62;96032.20;105280;1256;60448;-36
2023/11/29 06:50:20;;;;;;;3.00;2.50;;;;;;;17.24;52.75;96038.00;105492;1256;73828;-35
2023/11/29 06:52:47;;;;;;;5.70;2.50;;;;;;;17.24;52.70;96041.48;105092;1261;66330;-37
2023/11/29 06:55:14;;;;;;;3.10;2.50;;;;;;;17.25;52.62;96045.89;105205;1260;72607;-36
2023/11/29 06:57:45;;;;;;;2.70;2.40;;;;;;;17.26;52.27;96050.39;105350;1261;61965;-32
2023/11/29 07:00:16;;;;;;;3.30;3.00;;;;;;;17.26;52.00;96050.39;105452;1257;174038;-32
2023/11/29 07:02:44;;;;;;;3.80;2.80;;;;;;;17.27;51.86;96058.65;105278;1262;75542;-31
2023/11/29 07:05:12;;;;;;;4.10;3.00;;;;;;;17.28;51.68;96063.38;105258;1256;66034;-32
2023/11/29 07:07:40;;;;;;;3.80;2.80;;;;;;;17.28;51.46;96071.73;106076;1256;73589;-32
2023/11/29 07:10:08;;;;;;;5.70;2.90;;;;;;;17.28;51.03;96072.20;105520;1269;60472;-33
2023/11/29 07:12:35;;;;;;;3.80;2.80;;;;;;;17.28;50.67;96080.70;105518;1260;60559;-32
2023/11/29 07:15:04;;;;;;;5.10;3.00;;;;;;;17.28;50.32;96088.27;105425;1260;74671;-33
2023/11/29 07:17:32;;;;;;;6.90;3.40;;;;;;;17.28;50.11;96095.29;105431;1256;66433;-33
2023/11/29 07:20:04;;;;;;;4.00;3.30;;;;;;;17.28;49.94;96096.77;104959;1260;73347;-31
2023/11/29 07:22:34;;;;;;;3.30;2.80;;;;;;;17.28;50.28;96103.96;105473;1262;60547;-36
2023/11/29 07:25:06;;;;;;;4.60;3.00;;;;;;;17.28;50.47;96113.02;105035;1260;60773;-38
2023/11/29 07:27:37;;;;;;;5.50;3.20;;;;;;;17.29;50.70;96118.67;105293;1255;74590;-35
2023/11/29 07:30:06;;;;;;;4.20;3.00;;;;;;;17.32;51.17;96129.11;105283;1260;64731;-32
2023/11/29 07:32:33;;;;;;;5.20;2.80;;;;;;;17.36;51.72;96132.61;105411;1259;72419;-38
2023/11/29 07:35:01;;;;;;;5.10;3.10;;;;;;;17.39;51.87;96131.23;105417;1258;60380;-35
2023/11/29 07:37:28;;;;;;;5.70;2.90;;;;;;;17.44;51.91;96137.60;105848;1261;60319;-34
2023/11/29 07:39:56;;;;;;;3.30;2.90;;;;;;;17.48;51.73;96146.29;105262;1259;73782;-37
2023/11/29 07:42:23;;;;;;;3.70;2.50;;;;;;;17.52;51.77;96148.04;105323;1261;65100;-36
2023/11/29 07:44:51;;;;;;;4.80;2.90;;;;;;;17.55;51.47;96158.03;105285;1259;72593;-37
2023/11/29 07:47:18;;;;;;;6.00;3.00;;;;;;;17.58;51.67;96162.14;105301;1267;60449;-37
2023/11/29 07:49:46;;;;;;;3.00;2.70;;;;;;;17.60;51.90;96167.56;105065;1255;61115;-38
2023/11/29 07:52:13;;;;;;;4.50;3.00;;;;;;;17.61;52.10;96176.01;105524;1254;73593;-35
2023/11/29 07:54:41;;;;;;;4.40;2.90;;;;;;;17.63;52.09;96178.02;105549;1259;64972;-37
2023/11/29 07:57:08;;;;;;;4.10;2.90;;;;;;;17.63;52.21;96180.89;106114;1260;72680;-36
2023/11/29 07:59:36;;;;;;;3.40;2.70;;;;;;;17.65;52.25;96183.38;105216;1256;60527;-37
2023/11/29 08:02:03;;;;;;;3.20;2.60;;;;;;;17.65;52.22;96184.39;105277;1260;61251;-37
2023/11/29 08:04:31;;;;;;;5.30;2.80;;;;;;;17.66;52.23;96182.61;105596;1259;73778;-38
2023/11/29 08:06:59;;;;;;;3.10;2.60;;;;;;;17.66;52.18;96182.91;105880;1260;65129;-38
2023/11/29 08:09:26;;;;;;;4.40;2.60;;;;;;;17.67;52.11;96190.42;105703;1260;72236;-37
2023/11/29 08:11:53;;;;;;;3.00;2.70;;;;;;;17.67;52.07;96198.09;105445;1260;60510;-39
2023/11/29 08:14:21;;;;;;;3.70;2.40;;;;;;;17.67;52.18;96206.91;105175;1261;60485;-38
2023/11/29 08:16:49;;;;;;;3.70;2.70;;;;;;;17.68;52.11;96211.95;105207;1259;73539;-37
2023/11/29 08:19:17;;;;;;;3.40;2.80;;;;;;;17.70;52.19;96218.75;105949;1259;66313;-33
2023/11/29 08:21:45;;;;;;;5.20;2.60;;;;;;;17.70;52.19;96215.51;105293;1258;72632;-33
2023/11/29 08:24:12;;;;;;;3.20;2.40;;;;;;;17.71;52.30;96211.10;105323;1269;62024;-36
2023/11/29 08:26:45;;;;;;;3.40;2.60;;;;;;;17.73;52.42;96212.66;105263;1261;60351;-39
2023/11/29 08:29:13;;;;;;;9.60;2.70;;;;;;;17.74;52.56;96212.83;104856;1260;73778;-38
2023/11/29 08:31:41;;;;;;;3.60;2.40;;;;;;;17.76;52.68;96225.45;105366;1261;65049;-35
2023/11/29 08:34:08;;;;;;;4.30;2.70;;;;;;;17.78;52.77;96231.02;105067;1260;73431;-36
2023/11/29 08:36:35;;;;;;;6.10;2.60;;;;;;;17.80;52.85;96233.81;105161;1260;60358;-37
2023/11/29 08:39:03;;;;;;;4.10;2.60;;;;;;;17.81;52.77;96239.70;105427;1259;60645;-38
2023/11/29 08:41:30;;;;;;;5.00;2.40;;;;;;;17.82;52.85;96238.55;105334;1260;73726;-35
2023/11/29 08:43:58;;;;;;;4.80;2.80;;;;;;;17.83;52.91;96239.88;105089;1261;65046;-37
2023/11/29 08:46:25;;;;;;;4.80;2.50;;;;;;;17.83;53.02;96239.48;105556;1260;72147;-36
2023/11/29 08:48:52;;;;;;;3.90;2.60;;;;;;;17.84;52.97;96241.80;105646;1261;60447;-36
2023/11/29 08:51:20;;;;;;;4.60;2.80;;;;;;;17.84;52.83;96246.38;105199;1258;60433;-37
2023/11/29 08:53:49;;;;;;;4.20;2.70;;;;;;;17.84;52.76;96245.05;105308;1256;74496;-37
2023/11/29 08:56:18;;;;;;;4.10;2.80;;;;;;;17.84;52.56;96245.75;105369;1258;66975;-38
2023/11/29 08:58:46;;;;;;;3.20;2.60;;;;;;;17.84;52.57;96247.06;107320;1259;71398;-38
2023/11/29 09:01:20;;;;;;;4.30;2.90;;;;;;;17.84;52.58;96252.95;105321;1260;60603;-38
2023/11/29 09:03:48;;;;;;;4.60;2.70;;;;;;;17.86;52.60;96251.80;105509;1261;60364;-38
2023/11/29 09:06:16;;;;;;;4.10;2.80;;;;;;;17.86;52.61;96251.65;105248;1256;74703;-37
2023/11/29 09:08:44;;;;;;;5.50;2.70;;;;;;;17.87;52.82;96242.77;104923;1262;65379;-40
2023/11/29 09:11:12;;;;;;;6.10;2.80;;;;;;;17.90;52.98;96245.41;105187;1260;73521;-37
2023/11/29 09:13:40;;;;;;;7.50;2.80;;;;;;;17.91;53.24;96235.50;105105;1260;60438;-39
2023/11/29 09:16:08;;;;;;;4.10;2.70;;;;;;;17.92;53.32;96239.52;105248;1260;60737;-38
2023/11/29 09:18:36;;;;;;;3.70;3.00;;;;;;;17.93;53.51;96248.52;105449;1254;73380;-42
2023/11/29 09:21:09;;;;;;;3.80;2.70;;;;;;;17.96;53.79;96254.25;105252;1262;66003;-40
2023/11/29 09:23:38;;;;;;;5.20;3.00;;;;;;;18.00;54.25;96256.20;105146;1255;73346;-38
2023/11/29 09:26:06;;;;;;;4.00;2.90;;;;;;;18.03;54.66;96254.98;108174;1253;60411;-36
2023/11/29 09:28:33;;;;;;;4.60;3.00;;;;;;;18.07;54.83;96259.81;108239;1258;60752;-40
2023/11/29 09:31:03;;;;;;;3.70;2.80;;;;;;;18.11;55.16;96262.31;105409;1259;74567;-40
2023/11/29 09:33:32;;;;;;;3.00;2.60;;;;;;;18.15;55.17;96266.42;105411;1260;65080;-34
2023/11/29 09:36:00;;;;;;;3.50;2.90;;;;;;;18.19;55.28;96266.06;105140;1262;72672;-36
2023/11/29 09:38:27;;;;;;;4.30;3.10;;;;;;;18.21;55.24;96266.38;105192;1260;60386;-36
2023/11/29 09:40:55;;;;;;;5.50;2.80;;;;;;;18.24;55.23;96268.80;105327;1260;60309;-35
2023/11/29 09:43:23;;;;;;;5.60;3.00;;;;;;;18.26;55.15;96272.29;105416;1255;74599;-35
2023/11/29 09:45:50;;;;;;;6.10;3.10;;;;;;;18.28;55.17;96277.71;105219;1258;65899;-39
2023/11/29 09:48:17;;;;;;;6.10;2.70;;;;;;;18.29;55.16;96279.35;105356;1257;72704;-40
2023/11/29 09:50:45;;;;;;;5.60;2.80;;;;;;;18.31;55.11;96288.41;105498;1260;60579;-39
2023/11/29 09:53:13;;;;;;;4.10;2.80;;;;;;;18.31;54.93;96293.77;105201;1257;60481;-39
2023/11/29 09:55:40;;;;;;;2.90;2.60;;;;;;;18.31;54.81;96301.81;105492;1256;73816;-40
2023/11/29 09:58:07;;;;;;;7.30;3.10;;;;;;;18.31;54.79;96304.67;105324;1259;65338;-40
2023/11/29 10:00:36;;;;;;;4.10;2.90;;;;;;;18.31;54.65;96304.52;105803;1257;72489;-40
2023/11/29 10:03:13;;;;;;;5.40;3.10;;;;;;;18.31;54.56;96298.25;105474;1270;60551;-39
2023/11/29 10:05:45;;;;;;;4.50;2.70;;;;;;;18.31;54.49;96302.20;105812;1260;60310;-39
2023/11/29 10:08:19;;;;;;;3.60;2.70;;;;;;;18.30;54.40;96302.59;105223;1257;72369;-39
2023/11/29 10:10:47;;;;;;;5.80;2.70;;;;;;;18.29;54.37;96302.58;105215;1258;67111;-38
2023/11/29 10:13:17;;;;;;;3.30;2.70;;;;;;;18.29;54.41;96299.48;105891;1258;70243;-39
2023/11/29 10:15:46;;;;;;;4.10;2.80;;;;;;;18.29;54.34;96300.57;105288;1256;60410;-39
2023/11/29 10:18:19;;;;;;;6.40;2.90;;;;;;;18.29;54.31;96302.66;105053;1257;60422;-37
2023/11/29 10:20:50;;;;;;;5.00;2.90;;;;;;;18.29;54.29;96305.21;105392;1256;72221;-39
2023/11/29 10:23:33;;;;;;;5.40;3.20;;;;;;;18.28;54.25;96315.03;105024;1259;66749;-38
2023/11/29 10:26:01;;;;;;;4.00;2.80;;;;;;;18.27;54.19;96322.24;105259;1256;73654;-39
2023/11/29 10:28:28;;;;;;;4.00;2.40;;;;;;;18.27;54.19;96328.35;105289;1260;60450;-39
2023/11/29 10:30:56;;;;;;;3.60;2.80;;;;;;;18.26;54.14;96324.47;107857;1257;59365;-37
2023/11/29 10:33:23;;;;;;;4.30;2.90;;;;;;;18.26;54.17;96329.58;104968;1257;75259;-38
2023/11/29 10:35:51;;;;;;;4.10;2.90;;;;;;;18.25;54.24;96330.28;105211;1263;65201;-38
2023/11/29 10:38:20;;;;;;;6.70;2.90;;;;;;;18.24;54.27;96331.04;105308;1256;73478;-41
2023/11/29 10:40:48;;;;;;;4.30;2.60;;;;;;;18.23;54.43;96338.16;105093;1264;60543;-39
2023/11/29 10:43:20;;;;;;;3.30;2.80;;;;;;;18.22;54.55;96340.02;105201;1257;60478;-39
2023/11/29 10:45:47;;;;;;;7.30;3.10;;;;;;;18.21;54.85;96344.88;105419;1258;74990;-37
2023/11/29 10:48:16;;;;;;;5.20;3.00;;;;;;;18.21;55.01;96345.95;104929;1257;65449;-37
2023/11/29 10:50:47;;;;;;;3.10;2.60;;;;;;;18.21;55.25;96350.62;105441;1260;72801;-38
2023/11/29 10:53:18;;;;;;;4.50;3.00;;;;;;;18.22;55.50;96350.02;105116;1256;61594;-38
2023/11/29 10:55:47;;;;;;;5.30;2.90;;;;;;;18.24;55.78;96354.42;105138;1256;61036;-37
2023/11/29 10:58:23;;;;;;;4.50;2.80;;;;;;;18.25;56.00;96356.29;104868;1260;73804;-37
2023/11/29 11:00:50;;;;;;;4.00;2.60;;;;;;;18.26;56.08;96359.00;109048;1255;66930;-37
2023/11/29 11:03:43;;;;;;;2.80;2.60;;;;;;;18.27;56.15;96365.59;108864;1254;72468;-37
2023/11/29 11:06:23;;;;;;;4.20;2.60;;;;;;;18.28;56.23;96373.34;109062;1255;60422;-37
2023/11/29 11:08:50;;;;;;;3.60;2.80;;;;;;;18.29;56.17;96382.95;109062;1255;60352;-37
2023/11/29 11:11:43;;;;;;;6.50;3.10;;;;;;;18.32;56.34;96398.23;108818;1256;73799;-39
2023/11/29 11:14:19;;;;;;;4.50;3.00;;;;;;;18.35;56.61;96405.98;105145;1261;67323;-39
2023/11/29 11:16:53;;;;;;;;;;;;;;;18.39;56.58;96415.92;105389;1257;73696;-37
2023/11/29 11:19:34;;;;;;;4.60;2.80;;;;;;;18.42;56.40;96417.64;105686;1257;60470;-37
2023/11/29 11:22:02;;;;;;;7.80;3.10;;;;;;;18.45;56.44;96429.45;105548;1256;60527;-37
2023/11/29 11:25:05;;;;;;;4.80;3.20;;;;;;;18.47;56.46;96438.86;105170;1261;73801;-38
2023/11/29 11:27:38;;;;;;;3.10;2.80;;;;;;;18.50;56.49;96440.11;105474;1257;66306;-37
2023/11/29 11:30:14;;;;;;;8.50;3.20;;;;;;;18.53;56.49;96435.71;105262;1260;72453;-38